Bess — 3FHH5 — position and weather

sailwx.info

Track history (hours):
 
Tides and Currents Weather Stations Pressure Air Temp Water Temp Dewpoint Dewpoint Depression Visibility Wind Speed Wind Dir Waves Ship Positions

Bess

Last reported at 2017-Sep-24 02:47 UTC. Time now 2017-Sep-24 05:17 UTC.
Position S 37°54' E 149°40'.

Length 199 m; draft 8.3 m.

Type: Cargo ship. MMSI: 372995000.

Date/timePositionNaut miles runAvg speedWind from/ knotsBaromVisibWave heightAir tempDewpointWater temp
2017-Sep-24 02:47S 37°54' E 149°40'414.2
2017-Sep-24 02:29S 37°56' E 149°35'714.8
2017-Sep-24 02:00S 37°60' E 149°27'814.8
2017-Sep-24 01:27S 38°05' E 149°20'714.9
2017-Sep-24 01:00S 38°10' E 149°13'714.3
2017-Sep-24 00:30S 38°14' E 149°06'814.3
2017-Sep-23 23:58S 38°19' E 148°59'714.3
2017-Sep-23 23:30S 38°24' E 148°52'714.5
2017-Sep-23 23:00S 38°28' E 148°45'815.1
2017-Sep-23 22:30S 38°33' E 148°38'715.2
2017-Sep-23 22:00S 38°38' E 148°30'915.4
2017-Sep-23 21:24S 38°44' E 148°21'  
Track history (hours):
 
Tides and Currents Weather Stations Pressure Air Temp Water Temp Dewpoint Dewpoint Depression Visibility Wind Speed Wind Dir Waves Ship Positions

Bess

Last reported at 2017-Sep-24 02:47 UTC. Time now 2017-Sep-24 05:17 UTC.
Position S 37°54' E 149°40'.

Length 199 m; draft 8.3 m.

Type: Cargo ship. MMSI: 372995000.

Date/timePositionNaut miles runAvg speedWind from/ knotsBaromVisibWave heightAir tempDewpointWater temp
2017-Sep-24 02:47S 37°54' E 149°40'414.2
2017-Sep-24 02:29S 37°56' E 149°35'714.8
2017-Sep-24 02:00S 37°60' E 149°27'814.8
2017-Sep-24 01:27S 38°05' E 149°20'714.9
2017-Sep-24 01:00S 38°10' E 149°13'714.3
2017-Sep-24 00:30S 38°14' E 149°06'814.3
2017-Sep-23 23:58S 38°19' E 148°59'714.3
2017-Sep-23 23:30S 38°24' E 148°52'714.5
2017-Sep-23 23:00S 38°28' E 148°45'815.1
2017-Sep-23 22:30S 38°33' E 148°38'715.2
2017-Sep-23 22:00S 38°38' E 148°30'915.4
2017-Sep-23 21:24S 38°44' E 148°21'  

Dump ship's entire track history